createdAt,value
2023-04-28T00:00:11.866Z,99428.13
2023-04-28T00:01:44.725Z,99432.53
2023-04-28T00:03:18.977Z,99431.78
2023-04-28T00:04:52.350Z,99426.47
2023-04-28T00:06:24.668Z,99435.34
2023-04-28T00:07:57.876Z,99438.81
2023-04-28T00:09:32.782Z,99438.72
2023-04-28T00:11:10.183Z,99437.72
2023-04-28T00:12:43.338Z,99442.03
2023-04-28T00:14:16.993Z,99427.25
2023-04-28T00:15:53.179Z,99440.19
2023-04-28T00:17:26.480Z,99435.72
2023-04-28T00:18:59.672Z,99440.06
2023-04-28T00:20:33.295Z,99436.75
2023-04-28T00:22:06.720Z,99443.75
2023-04-28T00:23:39.874Z,99433.28
2023-04-28T00:25:14.392Z,99446.50
2023-04-28T00:26:46.608Z,99446.41
2023-04-28T00:28:32.918Z,99442.25
2023-04-28T00:30:09.482Z,99442.25
2023-04-28T00:31:42.671Z,99447.53
2023-04-28T00:33:16.173Z,99445.63
2023-04-28T00:34:49.573Z,99444.69
2023-04-28T00:36:22.941Z,99449.88
2023-04-28T00:37:55.126Z,99452.63
2023-04-28T00:39:28.566Z,99452.69
2023-04-28T00:41:03.434Z,99454.34
2023-04-28T00:42:35.794Z,99454.34
2023-04-28T00:44:09.535Z,99449.16
2023-04-28T00:45:41.776Z,99451.59
2023-04-28T00:47:18.933Z,99455.97
2023-04-28T00:48:52.455Z,99458.78
2023-04-28T00:50:26.827Z,99458.03
2023-04-28T00:52:03.813Z,99461.03
2023-04-28T00:53:37.811Z,99457.53
2023-04-28T00:55:11.751Z,99460.09
2023-04-28T00:56:46.498Z,99451.31
2023-04-28T00:58:20.578Z,99458.69
2023-04-28T00:59:54.128Z,99461.31
2023-04-28T01:01:27.677Z,99472.00
2023-04-28T01:03:01.431Z,99470.97
2023-04-28T01:04:39.441Z,99462.25
2023-04-28T01:06:13.576Z,99469.25
2023-04-28T01:07:46.921Z,99468.22
2023-04-28T01:09:20.135Z,99468.41
2023-04-28T01:10:54.378Z,99474.56
2023-04-28T01:12:47.412Z,99471.91
2023-04-28T01:14:19.598Z,99479.00
2023-04-28T01:15:53.664Z,99476.41
2023-04-28T01:17:27.035Z,99479.06
2023-04-28T01:19:00.687Z,99468.69
2023-04-28T01:20:33.995Z,99471.31
2023-04-28T01:22:06.301Z,99465.25
2023-04-28T01:23:40.025Z,99464.41
2023-04-28T01:25:15.120Z,99469.81
2023-04-28T01:26:47.230Z,99467.25
2023-04-28T01:28:20.486Z,99462.19
2023-04-28T01:29:52.764Z,99456.31
2023-04-28T01:31:26.324Z,99456.31
2023-04-28T01:32:59.020Z,99465.97
2023-04-28T01:34:32.131Z,99465.13
2023-04-28T01:36:05.478Z,99464.41
2023-04-28T01:37:39.024Z,99473.13
2023-04-28T01:39:11.333Z,99477.56
2023-04-28T01:40:47.987Z,99474.09
2023-04-28T01:42:20.185Z,99472.38
2023-04-28T01:43:53.587Z,99477.56
2023-04-28T01:45:26.729Z,99475.81
2023-04-28T01:46:58.985Z,99477.66
2023-04-28T01:48:32.220Z,99488.25
2023-04-28T01:50:06.330Z,99481.22
2023-04-28T01:51:40.695Z,99478.59
2023-04-28T01:53:14.642Z,99483.81
2023-04-28T01:54:48.276Z,99482.94
2023-04-28T01:56:23.979Z,99485.66
2023-04-28T01:57:59.298Z,99490.28
2023-04-28T01:59:32.860Z,99483.25
2023-04-28T02:01:06.824Z,99486.91
2023-04-28T02:02:41.224Z,99484.31
2023-04-28T02:04:14.568Z,99485.28
2023-04-28T02:05:48.552Z,99487.31
2023-04-28T02:07:21.988Z,99483.09
2023-04-28T02:08:54.313Z,99490.97
2023-04-28T02:10:27.523Z,99489.25
2023-04-28T02:12:03.684Z,99494.53
2023-04-28T02:13:36.858Z,99495.44
2023-04-28T02:15:09.867Z,99499.91
2023-04-28T02:16:43.018Z,99505.25
2023-04-28T02:18:17.129Z,99501.94
2023-04-28T02:19:55.359Z,99503.75
2023-04-28T02:21:29.140Z,99503.97
2023-04-28T02:23:01.475Z,99500.75
2023-04-28T02:24:36.974Z,99502.47
2023-04-28T02:26:10.255Z,99500.84
2023-04-28T02:27:43.921Z,99495.66
2023-04-28T02:29:17.057Z,99497.31
2023-04-28T02:30:49.219Z,99506.03
2023-04-28T02:32:23.191Z,99506.13
2023-04-28T02:33:58.125Z,99502.66
2023-04-28T02:35:31.355Z,99515.06
2023-04-28T02:37:03.886Z,99514.31
2023-04-28T02:38:37.067Z,99512.63
2023-04-28T02:40:13.015Z,99518.88
2023-04-28T02:41:45.177Z,99514.69
2023-04-28T02:43:19.798Z,99514.81
2023-04-28T02:44:51.973Z,99513.97
2023-04-28T02:46:25.432Z,99515.84
2023-04-28T02:48:02.389Z,99520.41
2023-04-28T02:49:34.614Z,99523.22
2023-04-28T02:51:07.892Z,99523.41
2023-04-28T02:52:42.135Z,99521.84
2023-04-28T02:54:15.496Z,99536.03
2023-04-28T02:55:48.965Z,99532.63
2023-04-28T02:57:21.323Z,99536.28
2023-04-28T02:58:56.183Z,99542.50
2023-04-28T03:00:29.469Z,99542.63
2023-04-28T03:02:02.648Z,99546.19
2023-04-28T03:03:36.010Z,99555.03
2023-04-28T03:05:10.668Z,99550.72
2023-04-28T03:06:43.002Z,99559.63
2023-04-28T03:08:16.170Z,99557.06
2023-04-28T03:09:49.327Z,99553.63
2023-04-28T03:11:21.974Z,99562.53
2023-04-28T03:12:55.124Z,99554.81
2023-04-28T03:14:28.638Z,99568.81
2023-04-28T03:16:01.850Z,99559.22
2023-04-28T03:17:36.766Z,99564.53
2023-04-28T03:19:10.157Z,99565.44
2023-04-28T03:20:42.279Z,99563.72
2023-04-28T03:22:16.126Z,99576.00
2023-04-28T03:23:49.577Z,99569.06
2023-04-28T03:25:21.852Z,99572.63
2023-04-28T03:26:57.618Z,99577.00
2023-04-28T03:28:30.080Z,99574.47
2023-04-28T03:30:08.499Z,99579.81
2023-04-28T03:31:40.686Z,99592.19
2023-04-28T03:33:13.926Z,99583.44
2023-04-28T03:34:46.390Z,99586.91
2023-04-28T03:36:21.404Z,99590.53
2023-04-28T03:37:53.758Z,99592.44
2023-04-28T03:39:26.961Z,99594.22
2023-04-28T03:40:59.127Z,99589.97
2023-04-28T03:42:51.335Z,99597.13
2023-04-28T03:44:32.656Z,99606.84
2023-04-28T03:46:07.430Z,99600.66
2023-04-28T03:47:40.020Z,99600.56
2023-04-28T03:49:13.606Z,99607.63
2023-04-28T03:50:48.181Z,99606.75
2023-04-28T03:52:20.668Z,99618.97
2023-04-28T03:53:54.000Z,99617.06
2023-04-28T03:55:27.362Z,99615.25
2023-04-28T03:57:00.834Z,99617.03
2023-04-28T03:58:33.038Z,99618.63
2023-04-28T04:00:08.938Z,99623.91
2023-04-28T04:01:49.783Z,99630.88
2023-04-28T04:03:26.481Z,99638.06
2023-04-28T04:05:02.343Z,99638.06
2023-04-28T04:06:34.992Z,99636.16
2023-04-28T04:08:08.766Z,99632.75
2023-04-28T04:09:42.050Z,99648.53
2023-04-28T04:11:14.972Z,99645.72
2023-04-28T04:12:48.750Z,99650.84
2023-04-28T04:14:22.085Z,99638.59
2023-04-28T04:15:56.169Z,99641.31
2023-04-28T04:17:32.293Z,99657.19
2023-04-28T04:19:05.460Z,99648.59
2023-04-28T04:20:49.841Z,99646.94
2023-04-28T04:22:23.028Z,99648.59
2023-04-28T04:23:56.257Z,99655.53
2023-04-28T04:25:29.728Z,99655.53
2023-04-28T04:27:03.225Z,99657.34
2023-04-28T04:28:42.928Z,99654.75
2023-04-28T04:30:15.886Z,99651.19
2023-04-28T04:31:49.748Z,99660.03
2023-04-28T04:33:24.510Z,99661.75
2023-04-28T04:34:58.110Z,99653.88
2023-04-28T04:36:32.966Z,99662.63
2023-04-28T04:38:07.481Z,99662.53
2023-04-28T04:39:41.135Z,99653.75
2023-04-28T04:41:15.557Z,99662.44
2023-04-28T04:42:49.491Z,99656.19
2023-04-28T04:44:26.865Z,99654.34
2023-04-28T04:46:00.988Z,99659.50
2023-04-28T04:47:34.355Z,99664.63
2023-04-28T04:49:09.377Z,99667.31
2023-04-28T04:50:43.828Z,99662.94
2023-04-28T04:52:16.230Z,99661.09
2023-04-28T04:53:50.126Z,99663.63
2023-04-28T04:55:22.438Z,99674.09
2023-04-28T04:56:58.362Z,99674.09
2023-04-28T04:59:10.410Z,99679.22
2023-04-28T05:00:55.016Z,99676.63
2023-04-28T05:02:27.259Z,99684.41
2023-04-28T05:04:01.088Z,99690.50
2023-04-28T05:05:35.974Z,99688.63
2023-04-28T05:07:14.007Z,99682.44
2023-04-28T05:08:47.740Z,99689.47
2023-04-28T05:10:21.344Z,99687.59
2023-04-28T05:11:54.877Z,99692.88
2023-04-28T05:13:27.951Z,99692.94
2023-04-28T05:15:08.638Z,99682.41
2023-04-28T05:16:46.096Z,99691.28
2023-04-28T05:18:27.667Z,99691.34
2023-04-28T05:20:00.957Z,99693.09
2023-04-28T05:21:35.973Z,99697.47
2023-04-28T05:23:10.656Z,99694.69
2023-04-28T05:24:43.953Z,99688.41
2023-04-28T05:26:17.428Z,99693.53
2023-04-28T05:27:50.951Z,99695.97
2023-04-28T05:29:24.149Z,99702.81
2023-04-28T05:30:56.763Z,99699.19
2023-04-28T05:32:29.955Z,99697.34
2023-04-28T05:34:03.143Z,99704.38
2023-04-28T05:35:36.368Z,99706.91
2023-04-28T05:37:11.848Z,99702.41
2023-04-28T05:38:47.223Z,99702.31
2023-04-28T05:40:20.588Z,99702.25
2023-04-28T05:41:53.804Z,99701.34
2023-04-28T05:43:27.415Z,99698.72
2023-04-28T05:45:00.893Z,99703.88
2023-04-28T05:46:34.238Z,99714.44
2023-04-28T05:48:07.983Z,99710.94
2023-04-28T05:49:41.963Z,99711.84
2023-04-28T05:51:15.348Z,99712.81
2023-04-28T05:52:50.082Z,99721.56
2023-04-28T05:54:22.309Z,99718.84
2023-04-28T05:55:59.412Z,99719.66
2023-04-28T05:57:41.740Z,99726.78
2023-04-28T05:59:23.499Z,99720.69
2023-04-28T06:00:56.698Z,99728.56
2023-04-28T06:02:30.486Z,99721.56
2023-04-28T06:04:02.850Z,99718.97
2023-04-28T06:05:37.415Z,99725.19
2023-04-28T06:07:11.176Z,99732.13
2023-04-28T06:08:47.055Z,99729.38
2023-04-28T06:10:20.556Z,99738.13
2023-04-28T06:11:53.707Z,99731.22
2023-04-28T06:13:26.941Z,99735.50
2023-04-28T06:15:00.474Z,99731.94
2023-04-28T06:16:33.843Z,99733.69
2023-04-28T06:18:07.562Z,99733.53
2023-04-28T06:19:40.950Z,99736.94
2023-04-28T06:21:13.291Z,99733.22
2023-04-28T06:22:46.459Z,99733.06
2023-04-28T06:24:21.293Z,99736.47
2023-04-28T06:25:55.085Z,99741.56
2023-04-28T06:27:28.701Z,99743.22
2023-04-28T06:29:02.816Z,99733.34
2023-04-28T06:30:36.906Z,99743.78
2023-04-28T06:32:10.075Z,99734.13
2023-04-28T06:33:43.469Z,99742.78
2023-04-28T06:35:17.827Z,99740.81
2023-04-28T06:36:50.989Z,99740.53
2023-04-28T06:38:24.170Z,99741.22
2023-04-28T06:39:59.053Z,99742.69
2023-04-28T06:41:32.364Z,99746.84
2023-04-28T06:43:06.640Z,99741.16
2023-04-28T06:44:50.275Z,99748.31
2023-04-28T06:46:23.751Z,99742.84
2023-04-28T06:47:57.166Z,99742.53
2023-04-28T06:49:30.339Z,99738.00
2023-04-28T06:51:06.618Z,99739.97
2023-04-28T06:52:42.058Z,99744.16
2023-04-28T06:54:15.367Z,99743.88
2023-04-28T06:55:51.665Z,99739.81
2023-04-28T06:57:26.818Z,99741.06
2023-04-28T06:59:01.803Z,99745.97
2023-04-28T07:00:36.046Z,99744.59
2023-04-28T07:02:09.489Z,99741.59
2023-04-28T07:03:42.802Z,99747.50
2023-04-28T07:05:16.655Z,99743.75
2023-04-28T07:06:49.950Z,99739.19
2023-04-28T07:08:23.086Z,99745.28
2023-04-28T07:09:56.309Z,99742.47
2023-04-28T07:11:33.582Z,99744.84
2023-04-28T07:13:06.789Z,99742.59
2023-04-28T07:14:39.917Z,99746.03
2023-04-28T07:16:13.159Z,99744.00
2023-04-28T07:17:46.818Z,99742.03
2023-04-28T07:19:19.993Z,99753.22
2023-04-28T07:20:53.100Z,99750.78
2023-04-28T07:22:26.470Z,99740.06
2023-04-28T07:23:59.730Z,99738.56
2023-04-28T07:25:33.267Z,99739.09
2023-04-28T07:27:07.877Z,99734.84
2023-04-28T07:28:41.353Z,99738.78
2023-04-28T07:30:26.451Z,99731.75
2023-04-28T07:32:01.254Z,99739.38
2023-04-28T07:33:34.533Z,99736.63
2023-04-28T07:35:08.793Z,99742.03
2023-04-28T07:36:42.109Z,99734.28
2023-04-28T07:38:15.298Z,99749.69
2023-04-28T07:39:48.468Z,99739.81
2023-04-28T07:41:21.728Z,99742.59
2023-04-28T07:42:56.538Z,99737.91
2023-04-28T07:44:30.042Z,99731.31
2023-04-28T07:46:03.279Z,99738.13
2023-04-28T07:47:36.940Z,99733.13
2023-04-28T07:49:10.339Z,99723.03
2023-04-28T07:50:43.610Z,99731.44
2023-04-28T07:52:16.767Z,99725.56
2023-04-28T07:53:50.088Z,99724.88
2023-04-28T07:55:23.403Z,99726.63
2023-04-28T07:56:59.135Z,99726.72
2023-04-28T07:58:34.026Z,99720.06
2023-04-28T08:00:08.705Z,99728.78
2023-04-28T08:01:47.873Z,99733.78
2023-04-28T08:03:21.686Z,99728.78
2023-04-28T08:04:55.202Z,99725.84
2023-04-28T08:06:28.796Z,99723.97
2023-04-28T08:08:02.642Z,99730.88
2023-04-28T08:09:36.240Z,99727.97
2023-04-28T08:11:09.403Z,99728.09
2023-04-28T08:12:42.633Z,99724.66
2023-04-28T08:14:17.976Z,99717.59
2023-04-28T08:15:51.602Z,99724.66
2023-04-28T08:17:24.866Z,99722.34
2023-04-28T08:18:59.105Z,99727.13
2023-04-28T08:20:32.760Z,99721.44
2023-04-28T08:22:07.319Z,99722.19
2023-04-28T08:23:40.568Z,99727.25
2023-04-28T08:25:13.947Z,99714.91
2023-04-28T08:26:47.413Z,99713.78
2023-04-28T08:28:20.502Z,99723.16
2023-04-28T08:29:55.035Z,99725.31
2023-04-28T08:31:28.412Z,99721.06
2023-04-28T08:33:01.777Z,99717.31
2023-04-28T08:34:34.975Z,99717.25
2023-04-28T08:36:08.867Z,99716.31
2023-04-28T08:37:42.575Z,99714.41
2023-04-28T08:39:16.088Z,99714.47
2023-04-28T08:40:49.233Z,99711.94
2023-04-28T08:42:22.428Z,99711.00
2023-04-28T08:43:56.571Z,99712.44
2023-04-28T08:45:31.978Z,99708.38
2023-04-28T08:47:06.321Z,99709.13
2023-04-28T08:48:45.210Z,99713.09
2023-04-28T08:50:22.899Z,99702.78
2023-04-28T08:51:58.409Z,99713.22
2023-04-28T08:53:32.400Z,99705.25
2023-04-28T08:55:09.772Z,99707.28
2023-04-28T08:56:45.577Z,99707.81
2023-04-28T08:58:20.045Z,99706.91
2023-04-28T08:59:53.611Z,99699.94
2023-04-28T09:01:28.791Z,99696.25
2023-04-28T09:03:02.457Z,99698.16
2023-04-28T09:04:36.301Z,99702.19
2023-04-28T09:06:09.550Z,99690.88
2023-04-28T09:07:42.979Z,99687.66
2023-04-28T09:09:26.886Z,99686.78
2023-04-28T09:11:10.234Z,99675.72
2023-04-28T09:12:43.599Z,99685.28
2023-04-28T09:14:17.005Z,99686.00
2023-04-28T09:15:51.216Z,99682.22
2023-04-28T09:17:25.870Z,99678.69
2023-04-28T09:18:59.732Z,99676.66
2023-04-28T09:20:34.500Z,99675.44
2023-04-28T09:22:24.654Z,99676.66
2023-04-28T09:23:59.906Z,99670.06
2023-04-28T09:25:33.298Z,99665.75
2023-04-28T09:27:07.848Z,99662.56
2023-04-28T09:28:41.291Z,99656.88
2023-04-28T09:30:14.881Z,99648.78
2023-04-28T09:31:48.066Z,99655.84
2023-04-28T09:33:22.855Z,99648.84
2023-04-28T09:34:57.771Z,99649.25
2023-04-28T09:36:31.738Z,99646.34
2023-04-28T09:38:05.007Z,99644.03
2023-04-28T09:39:38.210Z,99642.72
2023-04-28T09:41:11.822Z,99636.75
2023-04-28T09:42:46.816Z,99636.63
2023-04-28T09:44:21.579Z,99644.09
2023-04-28T09:45:55.532Z,99636.53
2023-04-28T09:47:28.951Z,99633.31
2023-04-28T09:49:03.669Z,99638.03
2023-04-28T09:50:42.049Z,99635.19
2023-04-28T09:52:15.258Z,99636.50
2023-04-28T09:53:49.087Z,99629.28
2023-04-28T09:55:23.091Z,99627.44
2023-04-28T09:56:57.505Z,99621.34
2023-04-28T09:58:32.946Z,99622.22
2023-04-28T10:00:09.609Z,99622.16
2023-04-28T10:01:44.995Z,99626.09
2023-04-28T10:03:19.990Z,99616.22
2023-04-28T10:04:56.524Z,99620.66
2023-04-28T10:06:31.347Z,99621.78
2023-04-28T10:08:05.444Z,99606.31
2023-04-28T10:09:39.389Z,99615.78
2023-04-28T10:11:13.637Z,99606.78
2023-04-28T10:12:47.415Z,99607.53
2023-04-28T10:14:20.674Z,99602.38
2023-04-28T10:15:55.582Z,99605.38
2023-04-28T10:17:29.796Z,99606.50
2023-04-28T10:19:05.500Z,99596.34
2023-04-28T10:20:41.033Z,99608.50
2023-04-28T10:22:32.395Z,99599.53
2023-04-28T10:24:12.701Z,99613.56
2023-04-28T10:25:51.230Z,99604.44
2023-04-28T10:27:31.414Z,99602.66
2023-04-28T10:29:04.977Z,99605.72
2023-04-28T10:30:38.446Z,99599.09
2023-04-28T10:32:20.406Z,99600.72
2023-04-28T10:33:53.728Z,99588.25
2023-04-28T10:35:45.913Z,99592.88
2023-04-28T10:37:19.634Z,99587.31
2023-04-28T10:39:13.186Z,99586.69
2023-04-28T10:40:48.090Z,99583.53
2023-04-28T10:42:56.385Z,99584.81
2023-04-28T10:44:45.249Z,99581.72
2023-04-28T10:46:18.606Z,99582.03
2023-04-28T10:48:04.519Z,99578.09
2023-04-28T10:50:18.681Z,99574.94
2023-04-28T10:51:54.897Z,99562.81
2023-04-28T10:53:57.658Z,99569.53
2023-04-28T10:55:36.425Z,99575.50
2023-04-28T10:57:25.188Z,99569.63
2023-04-28T10:58:58.538Z,99564.28
2023-04-28T11:00:31.663Z,99564.19
2023-04-28T11:02:42.594Z,99567.75
2023-04-28T11:04:18.364Z,99566.41
2023-04-28T11:06:22.944Z,99574.97
2023-04-28T11:08:35.178Z,99568.06
2023-04-28T11:10:10.175Z,99572.59
2023-04-28T11:12:10.687Z,99567.25
2023-04-28T11:13:47.038Z,99558.94
2023-04-28T11:15:20.225Z,99547.91
2023-04-28T11:16:55.510Z,99550.75
2023-04-28T11:18:28.799Z,99543.94
2023-04-28T11:20:04.535Z,99543.78
2023-04-28T11:21:38.063Z,99554.25
2023-04-28T11:23:11.977Z,99553.13
2023-04-28T11:24:58.060Z,99544.03
2023-04-28T11:26:33.603Z,99542.88
2023-04-28T11:28:08.732Z,99549.38
2023-04-28T11:29:43.664Z,99543.47
2023-04-28T11:31:19.445Z,99541.38
2023-04-28T11:32:53.211Z,99536.34
2023-04-28T11:34:26.809Z,99537.41
2023-04-28T11:36:00.047Z,99535.78
2023-04-28T11:37:33.259Z,99540.63
2023-04-28T11:39:08.568Z,99530.44
2023-04-28T11:40:58.017Z,99536.75
2023-04-28T11:42:34.064Z,99530.97
2023-04-28T11:44:14.390Z,99522.63
2023-04-28T11:45:47.812Z,99529.59
2023-04-28T11:47:31.321Z,99528.31
2023-04-28T11:49:06.694Z,99517.16
2023-04-28T11:50:40.306Z,99521.03
2023-04-28T11:52:14.210Z,99514.47
2023-04-28T11:53:46.931Z,99523.81
2023-04-28T11:55:20.020Z,99528.91
2023-04-28T11:56:54.418Z,99521.22
2023-04-28T11:58:27.951Z,99516.59
2023-04-28T12:00:14.501Z,99516.91
2023-04-28T12:01:50.782Z,99522.78
2023-04-28T12:03:24.510Z,99502.97
2023-04-28T12:04:57.989Z,99510.19
2023-04-28T12:06:30.210Z,99511.56
2023-04-28T12:08:03.390Z,99493.28
2023-04-28T12:09:37.722Z,99493.09
2023-04-28T12:11:10.973Z,99497.66
2023-04-28T12:14:21.785Z,99498.69
2023-04-28T12:15:58.681Z,99490.28
2023-04-28T12:17:33.505Z,99486.06
2023-04-28T12:19:10.048Z,99486.84
2023-04-28T12:20:43.641Z,99497.16
2023-04-28T12:22:18.005Z,99484.38
2023-04-28T12:23:51.756Z,99489.63
2023-04-28T12:25:25.532Z,99483.31
2023-04-28T12:27:17.683Z,99484.72
2023-04-28T12:28:51.215Z,99488.88
2023-04-28T12:30:29.701Z,99479.75
2023-04-28T12:32:02.001Z,99482.59
2023-04-28T12:33:38.615Z,99484.16
2023-04-28T12:35:12.342Z,99480.72
2023-04-28T12:36:46.456Z,99487.53
2023-04-28T12:38:19.689Z,99483.38
2023-04-28T12:39:53.046Z,99480.34
2023-04-28T12:41:27.583Z,99471.88
2023-04-28T12:43:00.688Z,99473.63
2023-04-28T12:44:35.646Z,99473.91
2023-04-28T12:46:11.105Z,99457.47
2023-04-28T12:47:44.886Z,99460.41
2023-04-28T12:49:18.324Z,99469.56
2023-04-28T12:50:51.508Z,99474.78
2023-04-28T12:52:24.798Z,99470.84
2023-04-28T12:53:58.386Z,99462.25
2023-04-28T12:55:31.590Z,99457.13
2023-04-28T12:57:05.807Z,99450.34
2023-04-28T12:58:38.080Z,99456.84
2023-04-28T13:00:16.653Z,99441.56
2023-04-28T13:01:51.967Z,99455.28
2023-04-28T13:03:25.331Z,99450.50
2023-04-28T13:04:58.907Z,99450.03
2023-04-28T13:06:32.966Z,99449.31
2023-04-28T13:08:06.661Z,99441.91
2023-04-28T13:09:39.977Z,99459.16
2023-04-28T13:11:21.813Z,99457.94
2023-04-28T13:12:56.311Z,99449.31
2023-04-28T13:14:29.399Z,99447.78
2023-04-28T13:16:02.750Z,99449.78
2023-04-28T13:17:37.290Z,99452.94
2023-04-28T13:19:14.095Z,99442.81
2023-04-28T13:20:47.198Z,99440.31
2023-04-28T13:22:21.799Z,99450.47
2023-04-28T13:23:55.401Z,99441.31
2023-04-28T13:25:29.321Z,99441.66
2023-04-28T13:27:04.091Z,99447.47
2023-04-28T13:28:36.827Z,99447.78
2023-04-28T13:30:11.550Z,99446.34
2023-04-28T13:31:45.171Z,99440.34
2023-04-28T13:33:19.695Z,99448.84
2023-04-28T13:34:52.901Z,99447.75
2023-04-28T13:36:27.122Z,99435.84
2023-04-28T13:38:02.804Z,99442.53
2023-04-28T13:39:35.983Z,99433.38
2023-04-28T13:41:09.159Z,99436.91
2023-04-28T13:42:42.470Z,99438.09
2023-04-28T13:44:16.038Z,99447.66
2023-04-28T13:45:48.234Z,99430.66
2023-04-28T13:47:21.852Z,99435.69
2023-04-28T13:48:56.770Z,99439.75
2023-04-28T13:50:30.479Z,99444.78
2023-04-28T13:52:03.716Z,99449.59
2023-04-28T13:53:38.080Z,99438.09
2023-04-28T13:55:11.160Z,99437.16
2023-04-28T13:56:44.743Z,99432.41
2023-04-28T13:58:18.062Z,99427.94
2023-04-28T13:59:51.296Z,99433.69
2023-04-28T14:01:25.402Z,99433.88
2023-04-28T14:02:59.456Z,99439.69
2023-04-28T14:04:34.459Z,99438.28
2023-04-28T14:06:08.217Z,99425.31
2023-04-28T14:07:41.486Z,99439.06
2023-04-28T14:09:14.996Z,99430.03
2023-04-28T14:10:48.246Z,99437.75
2023-04-28T14:12:21.398Z,99434.88
2023-04-28T14:13:54.511Z,99435.97
2023-04-28T14:15:28.196Z,99438.09
2023-04-28T14:17:01.682Z,99432.94
2023-04-28T14:18:34.936Z,99434.88
2023-04-28T14:20:11.760Z,99437.63
2023-04-28T14:21:45.130Z,99438.38
2023-04-28T14:23:18.422Z,99431.56
2023-04-28T14:24:51.581Z,99432.69
2023-04-28T14:26:25.365Z,99431.75
2023-04-28T14:27:58.812Z,99430.22
2023-04-28T14:29:32.004Z,99435.03
2023-04-28T14:31:07.521Z,99438.63
2023-04-28T14:32:40.694Z,99422.41
2023-04-28T14:34:14.443Z,99432.41
2023-04-28T14:35:48.929Z,99434.44
2023-04-28T14:37:22.123Z,99428.28
2023-04-28T14:38:55.295Z,99422.59
2023-04-28T14:40:28.900Z,99429.31
2023-04-28T14:42:02.028Z,99421.06
2023-04-28T14:43:35.303Z,99426.81
2023-04-28T14:45:11.181Z,99423.53
2023-04-28T14:46:44.905Z,99411.31
2023-04-28T14:48:18.345Z,99409.34
2023-04-28T14:49:53.342Z,99402.16
2023-04-28T14:51:27.909Z,99399.69
2023-04-28T14:53:05.717Z,99399.69
2023-04-28T14:54:39.362Z,99408.84
2023-04-28T14:57:50.210Z,99407.69
2023-04-28T14:59:23.917Z,99411.91
2023-04-28T15:00:57.083Z,99403.59
2023-04-28T15:02:29.750Z,99406.38
2023-04-28T15:04:03.316Z,99407.31
2023-04-28T15:05:37.108Z,99407.09
2023-04-28T15:07:11.867Z,99395.63
2023-04-28T15:08:44.980Z,99405.22
2023-04-28T15:10:18.348Z,99412.19
2023-04-28T15:11:53.576Z,99399.09
2023-04-28T15:13:27.952Z,99410.81
2023-04-28T15:15:01.235Z,99402.56
2023-04-28T15:16:34.473Z,99401.19
2023-04-28T15:18:08.062Z,99399.63
2023-04-28T15:19:41.336Z,99401.13
2023-04-28T15:21:14.524Z,99391.84
2023-04-28T15:22:49.014Z,99396.81
2023-04-28T15:24:22.345Z,99389.00
2023-04-28T15:25:55.615Z,99397.50
2023-04-28T15:27:28.723Z,99398.91
2023-04-28T15:29:02.119Z,99394.72
2023-04-28T15:30:36.324Z,99396.38
2023-04-28T15:32:09.781Z,99396.47
2023-04-28T15:33:42.941Z,99389.47
2023-04-28T15:35:16.645Z,99397.59
2023-04-28T15:36:50.525Z,99392.25
2023-04-28T15:38:25.017Z,99394.19
2023-04-28T15:39:58.163Z,99390.09
2023-04-28T15:41:31.304Z,99392.78
2023-04-28T15:43:04.751Z,99392.97
2023-04-28T15:44:37.826Z,99389.91
2023-04-28T15:46:11.375Z,99394.25
2023-04-28T15:47:45.348Z,99392.47
2023-04-28T15:49:18.810Z,99393.03
2023-04-28T15:50:51.995Z,99386.22
2023-04-28T15:52:25.209Z,99379.69
2023-04-28T15:54:00.386Z,99385.72
2023-04-28T15:55:33.745Z,99391.22
2023-04-28T15:57:07.030Z,99381.84
2023-04-28T15:58:40.094Z,99375.75
2023-04-28T16:00:15.745Z,99390.97
2023-04-28T16:01:49.322Z,99386.94
2023-04-28T16:03:22.710Z,99388.06
2023-04-28T16:04:55.958Z,99386.00
2023-04-28T16:06:30.365Z,99373.00
2023-04-28T16:08:03.938Z,99370.25
2023-04-28T16:09:38.563Z,99379.00
2023-04-28T16:11:17.618Z,99383.50
2023-04-28T16:12:50.929Z,99367.84
2023-04-28T16:14:24.511Z,99377.91
2023-04-28T16:15:57.715Z,99375.50
2023-04-28T16:17:31.115Z,99382.63
2023-04-28T16:19:04.589Z,99375.91
2023-04-28T16:20:38.174Z,99370.94
2023-04-28T16:22:11.323Z,99383.22
2023-04-28T16:23:44.536Z,99376.41
2023-04-28T16:25:19.307Z,99379.94
2023-04-28T16:26:53.513Z,99383.63
2023-04-28T16:28:26.878Z,99382.63
2023-04-28T16:30:00.145Z,99384.16
2023-04-28T16:31:34.013Z,99381.75
2023-04-28T16:33:08.731Z,99381.91
2023-04-28T16:34:42.047Z,99385.53
2023-04-28T16:36:15.217Z,99375.91
2023-04-28T16:37:48.332Z,99382.25
2023-04-28T16:39:21.931Z,99379.69
2023-04-28T16:40:56.442Z,99375.81
2023-04-28T16:42:28.669Z,99377.88
2023-04-28T16:44:01.882Z,99389.31
2023-04-28T16:45:35.577Z,99382.41
2023-04-28T16:47:08.770Z,99385.59
2023-04-28T16:48:42.084Z,99385.75
2023-04-28T16:50:15.767Z,99389.44
2023-04-28T16:51:57.717Z,99394.84
2023-04-28T16:53:30.953Z,99382.63
2023-04-28T16:55:04.299Z,99392.56
2023-04-28T16:56:39.624Z,99395.28
2023-04-28T16:58:14.466Z,99393.75
2023-04-28T16:59:47.760Z,99388.41
2023-04-28T17:01:21.091Z,99392.03
2023-04-28T17:02:54.347Z,99393.28
2023-04-28T17:04:28.226Z,99394.31
2023-04-28T17:06:02.528Z,99392.22
2023-04-28T17:07:35.694Z,99402.06
2023-04-28T17:09:09.760Z,99407.69
2023-04-28T17:10:43.311Z,99411.63
2023-04-28T17:12:18.051Z,99418.94
2023-04-28T17:13:51.228Z,99409.81
2023-04-28T17:15:24.491Z,99420.19
2023-04-28T17:16:57.906Z,99420.56
2023-04-28T17:18:31.228Z,99419.28
2023-04-28T17:20:05.987Z,99430.25
2023-04-28T17:21:39.357Z,99432.22
2023-04-28T17:23:12.870Z,99436.28
2023-04-28T17:24:46.151Z,99434.72
2023-04-28T17:26:19.379Z,99436.88
2023-04-28T17:27:53.979Z,99427.59
2023-04-28T17:29:27.859Z,99432.41
2023-04-28T17:31:03.682Z,99430.06
2023-04-28T17:32:37.565Z,99439.19
2023-04-28T17:34:10.856Z,99436.78
2023-04-28T17:35:44.441Z,99435.88
2023-04-28T17:37:17.637Z,99436.78
2023-04-28T17:38:51.556Z,99440.38
2023-04-28T17:40:25.359Z,99440.38
2023-04-28T17:41:58.945Z,99435.22
2023-04-28T17:43:33.893Z,99440.53
2023-04-28T17:45:08.013Z,99438.03
2023-04-28T17:46:41.355Z,99446.06
2023-04-28T17:48:14.746Z,99445.75
2023-04-28T17:49:48.288Z,99453.97
2023-04-28T17:51:21.897Z,99454.72
2023-04-28T17:52:55.071Z,99452.91
2023-04-28T17:54:28.276Z,99460.28
2023-04-28T17:56:02.381Z,99457.22
2023-04-28T17:57:35.541Z,99452.28
2023-04-28T17:59:10.879Z,99460.25
2023-04-28T18:00:44.184Z,99449.75
2023-04-28T18:02:18.425Z,99460.38
2023-04-28T18:03:51.805Z,99462.97
2023-04-28T18:05:26.120Z,99453.22
2023-04-28T18:06:59.356Z,99465.69
2023-04-28T18:08:32.650Z,99460.38
2023-04-28T18:10:06.361Z,99448.28
2023-04-28T18:11:39.571Z,99461.44
2023-04-28T18:13:12.856Z,99456.28
2023-04-28T18:14:47.733Z,99455.47
2023-04-28T18:16:21.813Z,99452.09
2023-04-28T18:17:55.015Z,99459.28
2023-04-28T18:19:29.001Z,99455.81
2023-04-28T18:21:02.442Z,99463.75
2023-04-28T18:22:36.002Z,99465.53
2023-04-28T18:24:09.199Z,99469.19
2023-04-28T18:25:43.778Z,99471.00
2023-04-28T18:27:17.255Z,99477.25
2023-04-28T18:28:50.363Z,99469.44
2023-04-28T18:30:25.057Z,99472.22
2023-04-28T18:31:58.260Z,99475.09
2023-04-28T18:33:31.431Z,99480.66
2023-04-28T18:35:04.837Z,99471.44
2023-04-28T18:36:38.352Z,99482.50